sensor_id;sensor_type;location;lat;lon;timestamp;temperature;humidity
80577;DHT22;69937;52.420;10.538;2023-09-18T00:03:40;19.10;67.00
80577;DHT22;69937;52.420;10.538;2023-09-18T00:08:41;19.00;67.50
80577;DHT22;69937;52.420;10.538;2023-09-18T00:13:41;19.00;67.40
80577;DHT22;69937;52.420;10.538;2023-09-18T00:18:42;18.90;67.60
80577;DHT22;69937;52.420;10.538;2023-09-18T00:23:44;18.80;68.00
80577;DHT22;69937;52.420;10.538;2023-09-18T00:28:46;18.70;68.20
80577;DHT22;69937;52.420;10.538;2023-09-18T00:33:47;18.60;68.30
80577;DHT22;69937;52.420;10.538;2023-09-18T00:38:48;18.50;68.40
80577;DHT22;69937;52.420;10.538;2023-09-18T00:43:49;18.50;68.60
80577;DHT22;69937;52.420;10.538;2023-09-18T00:48:50;18.40;68.90
80577;DHT22;69937;52.420;10.538;2023-09-18T00:53:51;18.40;68.70
80577;DHT22;69937;52.420;10.538;2023-09-18T00:58:52;18.40;68.40
80577;DHT22;69937;52.420;10.538;2023-09-18T01:03:52;18.40;68.50
80577;DHT22;69937;52.420;10.538;2023-09-18T01:08:53;18.40;68.30
80577;DHT22;69937;52.420;10.538;2023-09-18T01:19:08;18.30;68.60
80577;DHT22;69937;52.420;10.538;2023-09-18T01:24:08;18.30;68.60
80577;DHT22;69937;52.420;10.538;2023-09-18T01:29:09;18.20;69.00
80577;DHT22;69937;52.420;10.538;2023-09-18T01:34:10;18.10;69.10
80577;DHT22;69937;52.420;10.538;2023-09-18T01:39:12;18.00;69.40
80577;DHT22;69937;52.420;10.538;2023-09-18T01:44:12;18.00;69.70
80577;DHT22;69937;52.420;10.538;2023-09-18T01:49:13;18.00;69.80
80577;DHT22;69937;52.420;10.538;2023-09-18T01:54:13;17.80;70.10
80577;DHT22;69937;52.420;10.538;2023-09-18T01:59:14;17.70;70.00
80577;DHT22;69937;52.420;10.538;2023-09-18T02:04:15;17.60;70.50
80577;DHT22;69937;52.420;10.538;2023-09-18T02:09:16;17.70;70.50
80577;DHT22;69937;52.420;10.538;2023-09-18T02:14:17;17.60;70.30
80577;DHT22;69937;52.420;10.538;2023-09-18T02:19:17;17.50;70.40
80577;DHT22;69937;52.420;10.538;2023-09-18T02:24:20;17.50;70.70
80577;DHT22;69937;52.420;10.538;2023-09-18T02:29:21;17.50;70.80
80577;DHT22;69937;52.420;10.538;2023-09-18T02:34:21;17.50;70.80
80577;DHT22;69937;52.420;10.538;2023-09-18T02:39:22;17.50;70.70
80577;DHT22;69937;52.420;10.538;2023-09-18T02:44:23;17.50;70.80
80577;DHT22;69937;52.420;10.538;2023-09-18T02:49:23;17.50;70.70
80577;DHT22;69937;52.420;10.538;2023-09-18T02:54:24;17.50;70.80
80577;DHT22;69937;52.420;10.538;2023-09-18T02:59:25;17.50;71.10
80577;DHT22;69937;52.420;10.538;2023-09-18T03:04:25;17.40;71.20
80577;DHT22;69937;52.420;10.538;2023-09-18T03:09:26;17.40;71.40
80577;DHT22;69937;52.420;10.538;2023-09-18T03:14:26;17.40;71.60
80577;DHT22;69937;52.420;10.538;2023-09-18T03:19:27;17.40;71.70
80577;DHT22;69937;52.420;10.538;2023-09-18T03:24:27;17.40;71.50
80577;DHT22;69937;52.420;10.538;2023-09-18T03:29:28;17.30;71.70
80577;DHT22;69937;52.420;10.538;2023-09-18T03:34:30;17.30;71.70
80577;DHT22;69937;52.420;10.538;2023-09-18T03:39:31;17.40;71.70
80577;DHT22;69937;52.420;10.538;2023-09-18T03:44:32;17.20;72.10
80577;DHT22;69937;52.420;10.538;2023-09-18T03:49:32;17.20;71.90
80577;DHT22;69937;52.420;10.538;2023-09-18T03:54:33;17.20;72.20
80577;DHT22;69937;52.420;10.538;2023-09-18T03:59:34;17.20;72.00
80577;DHT22;69937;52.420;10.538;2023-09-18T04:04:35;17.10;72.20
80577;DHT22;69937;52.420;10.538;2023-09-18T04:09:36;17.00;71.90
80577;DHT22;69937;52.420;10.538;2023-09-18T04:14:38;16.90;72.20
80577;DHT22;69937;52.420;10.538;2023-09-18T04:19:39;16.90;72.60
80577;DHT22;69937;52.420;10.538;2023-09-18T04:24:39;16.90;73.30
80577;DHT22;69937;52.420;10.538;2023-09-18T04:29:41;17.00;73.30
80577;DHT22;69937;52.420;10.538;2023-09-18T04:34:41;17.00;73.00
80577;DHT22;69937;52.420;10.538;2023-09-18T04:39:42;17.00;73.00
80577;DHT22;69937;52.420;10.538;2023-09-18T04:44:43;17.00;72.80
80577;DHT22;69937;52.420;10.538;2023-09-18T04:49:43;17.00;73.50
80577;DHT22;69937;52.420;10.538;2023-09-18T04:54:48;17.00;73.60
80577;DHT22;69937;52.420;10.538;2023-09-18T04:59:48;17.00;73.80
80577;DHT22;69937;52.420;10.538;2023-09-18T05:04:49;17.00;74.30
80577;DHT22;69937;52.420;10.538;2023-09-18T05:09:51;17.00;74.50
80577;DHT22;69937;52.420;10.538;2023-09-18T05:14:52;17.10;74.20
80577;DHT22;69937;52.420;10.538;2023-09-18T05:19:52;17.20;74.40
80577;DHT22;69937;52.420;10.538;2023-09-18T05:24:53;17.20;74.50
80577;DHT22;69937;52.420;10.538;2023-09-18T05:29:53;17.40;74.10
80577;DHT22;69937;52.420;10.538;2023-09-18T05:34:54;17.50;74.00
80577;DHT22;69937;52.420;10.538;2023-09-18T05:39:54;17.60;74.00
80577;DHT22;69937;52.420;10.538;2023-09-18T05:44:55;17.70;73.90
80577;DHT22;69937;52.420;10.538;2023-09-18T05:49:56;17.80;73.50
80577;DHT22;69937;52.420;10.538;2023-09-18T05:54:57;17.90;73.90
80577;DHT22;69937;52.420;10.538;2023-09-18T05:59:57;18.00;74.10
80577;DHT22;69937;52.420;10.538;2023-09-18T06:04:59;18.20;73.80
80577;DHT22;69937;52.420;10.538;2023-09-18T06:10:00;18.40;72.90
80577;DHT22;69937;52.420;10.538;2023-09-18T06:15:01;18.70;72.30
80577;DHT22;69937;52.420;10.538;2023-09-18T06:20:01;18.90;72.20
80577;DHT22;69937;52.420;10.538;2023-09-18T06:25:02;19.20;71.80
80577;DHT22;69937;52.420;10.538;2023-09-18T06:30:06;19.40;71.90
80577;DHT22;69937;52.420;10.538;2023-09-18T06:35:08;19.50;71.70
80577;DHT22;69937;52.420;10.538;2023-09-18T06:40:09;19.70;71.10
80577;DHT22;69937;52.420;10.538;2023-09-18T06:45:10;19.70;71.00
80577;DHT22;69937;52.420;10.538;2023-09-18T06:50:10;19.90;71.60
80577;DHT22;69937;52.420;10.538;2023-09-18T06:55:12;20.10;71.00
80577;DHT22;69937;52.420;10.538;2023-09-18T07:00:13;20.50;69.30
80577;DHT22;69937;52.420;10.538;2023-09-18T07:05:15;20.80;67.80
80577;DHT22;69937;52.420;10.538;2023-09-18T07:10:16;21.10;67.90
80577;DHT22;69937;52.420;10.538;2023-09-18T07:15:16;21.30;67.50
80577;DHT22;69937;52.420;10.538;2023-09-18T07:20:17;21.40;67.00
80577;DHT22;69937;52.420;10.538;2023-09-18T07:25:18;21.40;66.30
80577;DHT22;69937;52.420;10.538;2023-09-18T07:30:18;21.40;66.10
80577;DHT22;69937;52.420;10.538;2023-09-18T07:35:20;21.30;66.70
80577;DHT22;69937;52.420;10.538;2023-09-18T07:40:21;21.20;67.10
80577;DHT22;69937;52.420;10.538;2023-09-18T07:45:25;21.10;67.50
80577;DHT22;69937;52.420;10.538;2023-09-18T07:50:26;21.10;68.00
80577;DHT22;69937;52.420;10.538;2023-09-18T07:55:27;20.90;67.80
80577;DHT22;69937;52.420;10.538;2023-09-18T08:00:28;20.90;67.90
80577;DHT22;69937;52.420;10.538;2023-09-18T08:05:29;21.00;67.90
80577;DHT22;69937;52.420;10.538;2023-09-18T08:10:30;21.00;67.50
80577;DHT22;69937;52.420;10.538;2023-09-18T08:15:31;21.10;67.80
80577;DHT22;69937;52.420;10.538;2023-09-18T08:20:32;21.30;67.90
80577;DHT22;69937;52.420;10.538;2023-09-18T08:25:33;21.50;68.50
80577;DHT22;69937;52.420;10.538;2023-09-18T08:30:34;21.70;69.10
80577;DHT22;69937;52.420;10.538;2023-09-18T08:35:34;21.80;67.20
80577;DHT22;69937;52.420;10.538;2023-09-18T08:40:35;21.90;65.10
80577;DHT22;69937;52.420;10.538;2023-09-18T08:45:46;22.50;64.10
80577;DHT22;69937;52.420;10.538;2023-09-18T08:50:48;23.00;62.50
80577;DHT22;69937;52.420;10.538;2023-09-18T08:55:49;23.10;62.10
80577;DHT22;69937;52.420;10.538;2023-09-18T09:00:50;23.20;61.30
80577;DHT22;69937;52.420;10.538;2023-09-18T09:05:50;23.30;61.50
80577;DHT22;69937;52.420;10.538;2023-09-18T09:10:51;23.40;61.80
80577;DHT22;69937;52.420;10.538;2023-09-18T09:15:56;23.40;61.50
80577;DHT22;69937;52.420;10.538;2023-09-18T09:21:00;23.30;61.40
80577;DHT22;69937;52.420;10.538;2023-09-18T09:26:17;23.30;61.90
80577;DHT22;69937;52.420;10.538;2023-09-18T09:31:28;23.30;61.80
80577;DHT22;69937;52.420;10.538;2023-09-18T09:36:29;23.30;60.40
80577;DHT22;69937;52.420;10.538;2023-09-18T09:41:31;23.40;60.50
80577;DHT22;69937;52.420;10.538;2023-09-18T09:46:31;23.40;60.20
80577;DHT22;69937;52.420;10.538;2023-09-18T09:51:33;23.50;60.90
80577;DHT22;69937;52.420;10.538;2023-09-18T09:56:45;23.50;60.70
80577;DHT22;69937;52.420;10.538;2023-09-18T10:01:47;23.60;60.20
80577;DHT22;69937;52.420;10.538;2023-09-18T10:06:58;23.60;59.80
80577;DHT22;69937;52.420;10.538;2023-09-18T10:11:59;23.50;60.00
80577;DHT22;69937;52.420;10.538;2023-09-18T10:17:15;23.40;60.10
80577;DHT22;69937;52.420;10.538;2023-09-18T10:22:28;23.30;60.20
80577;DHT22;69937;52.420;10.538;2023-09-18T10:27:35;23.30;60.70
80577;DHT22;69937;52.420;10.538;2023-09-18T10:32:40;23.20;61.00
80577;DHT22;69937;52.420;10.538;2023-09-18T10:37:45;23.10;60.90
80577;DHT22;69937;52.420;10.538;2023-09-18T10:42:46;23.10;61.30
80577;DHT22;69937;52.420;10.538;2023-09-18T10:47:48;23.10;61.30
80577;DHT22;69937;52.420;10.538;2023-09-18T10:52:49;23.10;61.80
80577;DHT22;69937;52.420;10.538;2023-09-18T10:57:55;23.10;61.60
80577;DHT22;69937;52.420;10.538;2023-09-18T11:03:10;23.20;61.70
80577;DHT22;69937;52.420;10.538;2023-09-18T11:13:29;23.50;61.50
80577;DHT22;69937;52.420;10.538;2023-09-18T11:18:33;23.70;61.00
80577;DHT22;69937;52.420;10.538;2023-09-18T11:23:36;23.80;60.00
80577;DHT22;69937;52.420;10.538;2023-09-18T11:28:38;23.90;60.20
80577;DHT22;69937;52.420;10.538;2023-09-18T11:33:40;24.00;59.60
80577;DHT22;69937;52.420;10.538;2023-09-18T11:38:55;23.90;59.80
80577;DHT22;69937;52.420;10.538;2023-09-18T11:49:29;24.00;59.50
80577;DHT22;69937;52.420;10.538;2023-09-18T11:54:32;24.00;59.00
80577;DHT22;69937;52.420;10.538;2023-09-18T11:59:37;24.20;59.20
80577;DHT22;69937;52.420;10.538;2023-09-18T12:04:38;24.20;58.60
80577;DHT22;69937;52.420;10.538;2023-09-18T12:09:39;24.10;58.90
80577;DHT22;69937;52.420;10.538;2023-09-18T12:14:40;24.00;59.00
80577;DHT22;69937;52.420;10.538;2023-09-18T12:19:54;23.90;58.90
80577;DHT22;69937;52.420;10.538;2023-09-18T12:25:15;23.90;59.40
80577;DHT22;69937;52.420;10.538;2023-09-18T12:30:17;24.10;59.20
80577;DHT22;69937;52.420;10.538;2023-09-18T12:35:21;24.40;58.10
80577;DHT22;69937;52.420;10.538;2023-09-18T12:40:27;24.90;57.20
80577;DHT22;69937;52.420;10.538;2023-09-18T12:45:28;25.20;56.40
80577;DHT22;69937;52.420;10.538;2023-09-18T12:50:29;25.00;57.30
80577;DHT22;69937;52.420;10.538;2023-09-18T12:55:30;24.60;57.80
80577;DHT22;69937;52.420;10.538;2023-09-18T13:00:31;24.40;58.70
80577;DHT22;69937;52.420;10.538;2023-09-18T13:05:31;24.30;59.10
80577;DHT22;69937;52.420;10.538;2023-09-18T13:10:44;24.20;58.90
80577;DHT22;69937;52.420;10.538;2023-09-18T13:15:44;24.10;59.30
80577;DHT22;69937;52.420;10.538;2023-09-18T13:20:48;24.00;60.00
80577;DHT22;69937;52.420;10.538;2023-09-18T13:25:50;23.90;60.30
80577;DHT22;69937;52.420;10.538;2023-09-18T13:30:51;23.90;60.30
80577;DHT22;69937;52.420;10.538;2023-09-18T13:35:52;23.70;61.10
80577;DHT22;69937;52.420;10.538;2023-09-18T13:40:54;23.60;60.30
80577;DHT22;69937;52.420;10.538;2023-09-18T13:45:57;23.60;60.00
80577;DHT22;69937;52.420;10.538;2023-09-18T13:50:59;23.50;60.20
80577;DHT22;69937;52.420;10.538;2023-09-18T13:56:00;23.50;60.40
80577;DHT22;69937;52.420;10.538;2023-09-18T14:01:00;23.50;60.60
80577;DHT22;69937;52.420;10.538;2023-09-18T14:06:02;23.40;60.80
80577;DHT22;69937;52.420;10.538;2023-09-18T14:11:05;23.40;60.50
80577;DHT22;69937;52.420;10.538;2023-09-18T14:16:06;23.40;61.10
80577;DHT22;69937;52.420;10.538;2023-09-18T14:21:08;23.40;60.80
80577;DHT22;69937;52.420;10.538;2023-09-18T14:26:09;23.40;60.50
80577;DHT22;69937;52.420;10.538;2023-09-18T14:31:10;23.30;60.70
80577;DHT22;69937;52.420;10.538;2023-09-18T14:36:10;23.30;60.70
80577;DHT22;69937;52.420;10.538;2023-09-18T14:41:11;23.30;61.00
80577;DHT22;69937;52.420;10.538;2023-09-18T14:46:11;23.20;61.00
80577;DHT22;69937;52.420;10.538;2023-09-18T14:51:12;23.10;61.20
80577;DHT22;69937;52.420;10.538;2023-09-18T14:56:12;23.10;61.10
80577;DHT22;69937;52.420;10.538;2023-09-18T15:01:13;23.00;61.00
80577;DHT22;69937;52.420;10.538;2023-09-18T15:06:15;23.00;61.40
80577;DHT22;69937;52.420;10.538;2023-09-18T15:11:15;23.00;62.00
80577;DHT22;69937;52.420;10.538;2023-09-18T15:16:17;23.10;62.10
80577;DHT22;69937;52.420;10.538;2023-09-18T15:21:18;23.00;61.90
80577;DHT22;69937;52.420;10.538;2023-09-18T15:26:18;23.00;61.90
80577;DHT22;69937;52.420;10.538;2023-09-18T15:31:19;23.00;61.90
80577;DHT22;69937;52.420;10.538;2023-09-18T15:36:20;22.90;62.00
80577;DHT22;69937;52.420;10.538;2023-09-18T15:41:23;22.90;61.80
80577;DHT22;69937;52.420;10.538;2023-09-18T15:46:23;22.90;61.90
80577;DHT22;69937;52.420;10.538;2023-09-18T15:51:24;22.90;61.80
80577;DHT22;69937;52.420;10.538;2023-09-18T15:56:25;22.80;61.50
80577;DHT22;69937;52.420;10.538;2023-09-18T16:01:26;22.80;61.60
80577;DHT22;69937;52.420;10.538;2023-09-18T16:06:26;22.60;61.50
80577;DHT22;69937;52.420;10.538;2023-09-18T16:11:27;22.60;61.60
80577;DHT22;69937;52.420;10.538;2023-09-18T16:16:28;22.60;61.40
80577;DHT22;69937;52.420;10.538;2023-09-18T16:21:28;22.50;61.50
80577;DHT22;69937;52.420;10.538;2023-09-18T16:26:30;22.50;61.70
80577;DHT22;69937;52.420;10.538;2023-09-18T16:31:31;22.40;61.70
80577;DHT22;69937;52.420;10.538;2023-09-18T16:36:33;22.30;61.70
80577;DHT22;69937;52.420;10.538;2023-09-18T16:41:33;22.30;61.60
80577;DHT22;69937;52.420;10.538;2023-09-18T16:46:34;22.20;62.00
80577;DHT22;69937;52.420;10.538;2023-09-18T16:51:36;22.10;62.10
80577;DHT22;69937;52.420;10.538;2023-09-18T16:56:37;22.10;62.10
80577;DHT22;69937;52.420;10.538;2023-09-18T17:01:37;22.10;61.90
80577;DHT22;69937;52.420;10.538;2023-09-18T17:06:38;22.00;62.20
80577;DHT22;69937;52.420;10.538;2023-09-18T17:11:40;21.90;62.30
80577;DHT22;69937;52.420;10.538;2023-09-18T17:16:40;21.90;62.40
80577;DHT22;69937;52.420;10.538;2023-09-18T17:21:41;21.80;62.50
80577;DHT22;69937;52.420;10.538;2023-09-18T17:26:41;21.80;62.70
80577;DHT22;69937;52.420;10.538;2023-09-18T17:31:42;21.70;62.80
80577;DHT22;69937;52.420;10.538;2023-09-18T17:36:43;21.60;63.00
80577;DHT22;69937;52.420;10.538;2023-09-18T17:41:44;21.50;63.20
80577;DHT22;69937;52.420;10.538;2023-09-18T17:46:45;21.40;63.30
80577;DHT22;69937;52.420;10.538;2023-09-18T17:51:46;21.40;63.50
80577;DHT22;69937;52.420;10.538;2023-09-18T17:56:47;21.30;63.70
80577;DHT22;69937;52.420;10.538;2023-09-18T18:01:47;21.20;63.90
80577;DHT22;69937;52.420;10.538;2023-09-18T18:06:49;21.10;64.00
80577;DHT22;69937;52.420;10.538;2023-09-18T18:11:49;21.10;64.20
80577;DHT22;69937;52.420;10.538;2023-09-18T18:16:50;21.10;64.20
80577;DHT22;69937;52.420;10.538;2023-09-18T18:21:51;21.10;64.20
80577;DHT22;69937;52.420;10.538;2023-09-18T18:26:51;21.10;64.20
80577;DHT22;69937;52.420;10.538;2023-09-18T18:31:54;21.10;64.10
80577;DHT22;69937;52.420;10.538;2023-09-18T18:36:55;21.10;64.10
80577;DHT22;69937;52.420;10.538;2023-09-18T18:41:56;21.10;64.00
80577;DHT22;69937;52.420;10.538;2023-09-18T18:46:56;21.10;64.10
80577;DHT22;69937;52.420;10.538;2023-09-18T18:51:58;21.10;64.00
80577;DHT22;69937;52.420;10.538;2023-09-18T18:56:58;21.00;64.20
80577;DHT22;69937;52.420;10.538;2023-09-18T19:01:59;21.00;64.20
80577;DHT22;69937;52.420;10.538;2023-09-18T19:07:00;20.90;64.30
80577;DHT22;69937;52.420;10.538;2023-09-18T19:12:01;20.90;64.40
80577;DHT22;69937;52.420;10.538;2023-09-18T19:17:03;20.80;64.70
80577;DHT22;69937;52.420;10.538;2023-09-18T19:22:05;20.80;64.70
80577;DHT22;69937;52.420;10.538;2023-09-18T19:27:06;20.70;64.70
80577;DHT22;69937;52.420;10.538;2023-09-18T19:32:10;20.70;64.90
80577;DHT22;69937;52.420;10.538;2023-09-18T19:37:11;20.60;65.00
80577;DHT22;69937;52.420;10.538;2023-09-18T19:42:11;20.50;65.20
80577;DHT22;69937;52.420;10.538;2023-09-18T19:47:12;20.50;65.30
80577;DHT22;69937;52.420;10.538;2023-09-18T19:52:12;20.50;65.40
80577;DHT22;69937;52.420;10.538;2023-09-18T19:57:14;20.50;65.60
80577;DHT22;69937;52.420;10.538;2023-09-18T20:02:16;20.30;65.80
80577;DHT22;69937;52.420;10.538;2023-09-18T20:07:17;20.30;65.90
80577;DHT22;69937;52.420;10.538;2023-09-18T20:12:17;20.10;66.10
80577;DHT22;69937;52.420;10.538;2023-09-18T20:17:18;20.10;66.30
80577;DHT22;69937;52.420;10.538;2023-09-18T20:22:19;20.10;66.30
80577;DHT22;69937;52.420;10.538;2023-09-18T20:27:19;20.00;66.20
80577;DHT22;69937;52.420;10.538;2023-09-18T20:32:20;20.10;66.30
80577;DHT22;69937;52.420;10.538;2023-09-18T20:37:21;20.00;66.20
80577;DHT22;69937;52.420;10.538;2023-09-18T20:42:22;20.00;66.20
80577;DHT22;69937;52.420;10.538;2023-09-18T20:47:22;20.00;66.20
80577;DHT22;69937;52.420;10.538;2023-09-18T20:52:23;20.00;66.20
80577;DHT22;69937;52.420;10.538;2023-09-18T20:57:24;20.00;66.30
80577;DHT22;69937;52.420;10.538;2023-09-18T21:02:25;20.00;66.40
80577;DHT22;69937;52.420;10.538;2023-09-18T21:07:25;20.00;66.30
80577;DHT22;69937;52.420;10.538;2023-09-18T21:12:27;20.00;66.40
80577;DHT22;69937;52.420;10.538;2023-09-18T21:17:28;20.00;66.40
80577;DHT22;69937;52.420;10.538;2023-09-18T21:22:28;20.00;66.30
80577;DHT22;69937;52.420;10.538;2023-09-18T21:27:29;20.00;66.50
80577;DHT22;69937;52.420;10.538;2023-09-18T21:32:30;20.00;66.60
80577;DHT22;69937;52.420;10.538;2023-09-18T21:37:30;20.00;66.70
80577;DHT22;69937;52.420;10.538;2023-09-18T21:42:31;20.00;66.80
80577;DHT22;69937;52.420;10.538;2023-09-18T21:47:32;20.00;66.80
80577;DHT22;69937;52.420;10.538;2023-09-18T21:52:33;20.10;66.90
80577;DHT22;69937;52.420;10.538;2023-09-18T21:57:34;20.10;67.30
80577;DHT22;69937;52.420;10.538;2023-09-18T22:02:34;19.90;63.90
80577;DHT22;69937;52.420;10.538;2023-09-18T22:07:35;19.70;62.50
80577;DHT22;69937;52.420;10.538;2023-09-18T22:12:36;19.50;62.70
80577;DHT22;69937;52.420;10.538;2023-09-18T22:17:36;19.30;63.50
80577;DHT22;69937;52.420;10.538;2023-09-18T22:22:37;18.90;65.50
80577;DHT22;69937;52.420;10.538;2023-09-18T22:27:42;18.50;67.90
80577;DHT22;69937;52.420;10.538;2023-09-18T22:32:43;17.80;69.30
80577;DHT22;69937;52.420;10.538;2023-09-18T22:37:43;17.50;70.40
80577;DHT22;69937;52.420;10.538;2023-09-18T22:59:08;16.50;74.80
80577;DHT22;69937;52.420;10.538;2023-09-18T23:04:10;16.30;75.40
80577;DHT22;69937;52.420;10.538;2023-09-18T23:09:16;16.20;75.30
80577;DHT22;69937;52.420;10.538;2023-09-18T23:14:17;16.20;75.80
80577;DHT22;69937;52.420;10.538;2023-09-18T23:19:19;16.20;75.90
80577;DHT22;69937;52.420;10.538;2023-09-18T23:24:21;16.10;76.10
80577;DHT22;69937;52.420;10.538;2023-09-18T23:29:22;16.10;76.10
80577;DHT22;69937;52.420;10.538;2023-09-18T23:34:23;16.00;76.20
80577;DHT22;69937;52.420;10.538;2023-09-18T23:39:24;16.00;76.40
80577;DHT22;69937;52.420;10.538;2023-09-18T23:44:24;16.00;75.90
80577;DHT22;69937;52.420;10.538;2023-09-18T23:49:26;16.00;76.30
80577;DHT22;69937;52.420;10.538;2023-09-18T23:54:28;16.00;76.30
80577;DHT22;69937;52.420;10.538;2023-09-18T23:59:30;15.90;76.20
